Time;durP1;ratioP1;P1;durP2;ratioP2;P2;SDS_P1;SDS_P2;PMS_P1;PMS_P2;Temp;Humidity;BMP_temperature;BMP_pressure;BME280_temperature;BME280_humidity;BME280_pressure;Samples;Min_cycle;Max_cycle;Signal;HPM_P1;HPM_P2
2022/10/10 00:02:23;;;;;;;15.07;13.83;;;;;;;21.54;45.56;95777.31;6097282;28;103675;-71
2022/10/10 00:05:26;;;;;;;14.70;13.50;;;;;;;21.55;45.56;95778.13;6086137;28;103333;-71
2022/10/10 00:08:31;;;;;;;14.40;13.10;;;;;;;21.54;45.74;95785.31;6097380;28;103447;-68
2022/10/10 00:11:35;;;;;;;14.67;13.57;;;;;;;21.54;45.57;95781.84;6100910;28;103126;-70
2022/10/10 00:14:38;;;;;;;13.63;12.50;;;;;;;21.56;45.85;95790.34;6089147;28;105523;-69
2022/10/10 00:17:42;;;;;;;15.40;14.10;;;;;;;21.52;45.94;95793.59;6096271;28;104990;-71
2022/10/10 00:20:45;;;;;;;14.37;13.07;;;;;;;21.52;45.88;95795.47;6088977;28;105646;-70
2022/10/10 00:23:50;;;;;;;14.20;13.10;;;;;;;21.54;45.59;95792.50;6096978;28;105730;-68
2022/10/10 00:26:53;;;;;;;14.77;13.57;;;;;;;21.52;45.64;95788.25;6085174;28;103227;-69
2022/10/10 00:29:56;;;;;;;14.23;12.93;;;;;;;21.50;46.06;95782.41;6091788;28;103161;-71
2022/10/10 00:33:00;;;;;;;14.63;13.33;;;;;;;21.50;45.62;95777.06;6096438;28;104915;-70
2022/10/10 00:36:03;;;;;;;13.70;12.50;;;;;;;21.52;45.37;95782.16;6096322;28;103196;-70
2022/10/10 00:39:07;;;;;;;14.37;13.20;;;;;;;21.49;45.80;95778.16;6086000;28;102933;-70
2022/10/10 00:42:12;;;;;;;13.60;12.30;;;;;;;21.52;45.76;95772.28;6096978;28;103822;-71
2022/10/10 00:45:37;;;;;;;14.17;12.97;;;;;;;21.52;45.36;95774.94;6097833;28;103248;-71
2022/10/10 00:48:44;;;;;;;13.03;12.07;;;;;;;21.52;45.41;95777.59;6089033;28;105014;-71
2022/10/10 00:51:50;;;;;;;13.80;12.60;;;;;;;21.50;45.63;95784.28;6092066;28;105950;-69
2022/10/10 00:54:54;;;;;;;13.47;12.37;;;;;;;21.46;45.18;95781.38;6099812;28;103112;-70
2022/10/10 00:57:57;;;;;;;12.57;11.57;;;;;;;21.49;45.37;95785.34;6099928;28;103291;-70
2022/10/10 01:01:00;;;;;;;12.90;11.90;;;;;;;21.48;45.64;95787.22;6083932;28;103501;-71
2022/10/10 01:04:04;;;;;;;12.87;11.77;;;;;;;21.47;45.26;95798.16;6091022;28;105601;-70
2022/10/10 01:07:10;;;;;;;13.67;12.57;;;;;;;21.46;45.19;95791.25;6095389;28;103510;-70
2022/10/10 01:10:19;;;;;;;13.00;12.00;;;;;;;21.45;45.36;95800.31;6096361;28;104075;-69
2022/10/10 01:13:32;;;;;;;13.03;11.93;;;;;;;21.45;45.24;95797.66;6085424;28;105861;-69
2022/10/10 01:16:44;;;;;;;13.17;12.10;;;;;;;21.41;45.43;95784.13;6096162;28;105992;-70
2022/10/10 01:20:20;;;;;;;13.03;12.03;;;;;;;21.45;45.08;95806.44;6094777;28;103461;-69
2022/10/10 01:23:51;;;;;;;13.10;12.07;;;;;;;21.43;45.82;95805.91;6084218;28;105058;-67
2022/10/10 01:27:16;;;;;;;13.60;12.50;;;;;;;21.46;45.64;95808.00;6093696;28;102813;-67
2022/10/10 01:30:22;;;;;;;13.30;12.30;;;;;;;21.41;45.03;95802.75;6094646;28;103098;-68
2022/10/10 01:33:33;;;;;;;13.40;12.30;;;;;;;21.43;45.41;95803.25;6088884;28;103889;-69
2022/10/10 01:36:41;;;;;;;13.30;12.27;;;;;;;21.43;45.15;95800.59;6073105;28;103320;-67
2022/10/10 01:39:53;;;;;;;13.30;12.30;;;;;;;21.42;45.08;95811.53;6094538;28;103150;-65
2022/10/10 01:42:59;;;;;;;13.77;12.57;;;;;;;21.42;45.52;95807.00;6094708;28;103324;-67
2022/10/10 01:46:12;;;;;;;12.50;11.50;;;;;;;21.40;45.07;95801.16;6084825;28;106870;-67
2022/10/10 01:49:15;;;;;;;12.57;11.67;;;;;;;21.38;45.01;95792.66;6094349;28;103243;-66
2022/10/10 01:52:28;;;;;;;12.77;11.77;;;;;;;21.39;45.07;95794.25;6095114;28;105217;-66
2022/10/10 01:55:48;;;;;;;12.90;11.90;;;;;;;21.42;44.82;95792.91;6091161;28;103640;-69
2022/10/10 01:59:11;;;;;;;13.73;12.63;;;;;;;21.40;45.13;95795.84;6074207;28;103671;-65
2022/10/10 02:02:23;;;;;;;13.10;11.90;;;;;;;21.36;45.21;95789.50;6097864;28;102869;-66
2022/10/10 02:05:36;;;;;;;12.67;11.60;;;;;;;21.37;44.89;95801.75;6097862;28;103353;-66
2022/10/10 02:08:45;;;;;;;12.73;11.60;;;;;;;21.38;45.22;95798.00;6079807;28;103428;-66
2022/10/10 02:11:49;;;;;;;13.20;12.20;;;;;;;21.38;44.85;95798.00;6100283;28;106464;-69
2022/10/10 02:14:57;;;;;;;13.40;12.30;;;;;;;21.36;45.19;95804.69;6099062;28;104099;-66
2022/10/10 02:18:05;;;;;;;13.13;11.97;;;;;;;21.34;45.13;95791.66;6099188;28;105360;-66
2022/10/10 02:21:09;;;;;;;13.03;11.93;;;;;;;21.37;44.75;95804.41;6086246;28;103552;-65
2022/10/10 02:24:13;;;;;;;13.33;12.20;;;;;;;21.35;45.05;95803.88;6094496;28;103351;-66
2022/10/10 02:27:21;;;;;;;13.37;12.37;;;;;;;21.34;45.01;95793.50;6094537;28;104433;-65
2022/10/10 02:30:24;;;;;;;14.53;13.37;;;;;;;21.38;44.87;95805.19;6085168;28;103451;-64
2022/10/10 02:33:38;;;;;;;12.80;11.80;;;;;;;21.35;44.92;95797.78;6090096;28;106043;-66
2022/10/10 02:36:45;;;;;;;13.00;11.90;;;;;;;21.36;44.74;95800.16;6094457;28;103524;-66
2022/10/10 02:39:50;;;;;;;12.50;11.40;;;;;;;21.35;44.65;95803.09;6088659;28;103067;-66
2022/10/10 02:42:55;;;;;;;12.60;11.60;;;;;;;21.34;44.84;95806.81;6083568;28;103115;-66
2022/10/10 02:46:02;;;;;;;12.13;11.17;;;;;;;21.36;44.86;95808.13;6093587;28;103118;-66
2022/10/10 02:49:09;;;;;;;12.13;11.03;;;;;;;21.38;44.56;95805.97;6094222;28;103964;-65
2022/10/10 02:52:14;;;;;;;12.70;11.60;;;;;;;21.41;44.64;95807.28;6093624;28;103122;-66
2022/10/10 02:55:17;;;;;;;11.30;10.30;;;;;;;21.40;44.87;95798.50;6084376;28;104455;-65
2022/10/10 02:58:20;;;;;;;12.00;11.10;;;;;;;21.43;44.87;95803.25;6095052;28;105662;-66
2022/10/10 03:01:23;;;;;;;12.87;11.77;;;;;;;21.42;44.96;95806.22;6090164;28;105778;-65
2022/10/10 03:04:28;;;;;;;13.30;11.97;;;;;;;21.37;45.31;95806.28;6092714;28;102739;-67
2022/10/10 03:07:31;;;;;;;12.93;11.73;;;;;;;21.39;45.17;95806.78;6093501;28;104763;-68
2022/10/10 03:10:34;;;;;;;12.70;11.50;;;;;;;21.39;44.95;95804.13;6092588;28;103332;-66
2022/10/10 03:13:37;;;;;;;13.80;12.50;;;;;;;21.40;45.05;95806.50;6090716;28;102921;-66
2022/10/10 03:16:40;;;;;;;12.97;11.70;;;;;;;21.43;45.12;95811.25;6068445;28;106124;-68
2022/10/10 03:19:45;;;;;;;12.60;11.30;;;;;;;21.44;45.15;95812.84;6090942;28;104213;-68
2022/10/10 03:22:48;;;;;;;12.63;11.60;;;;;;;21.44;44.93;95812.84;6103452;28;105326;-67
2022/10/10 03:25:52;;;;;;;12.17;11.13;;;;;;;21.45;44.54;95817.09;6110928;28;106879;-67
2022/10/10 03:28:55;;;;;;;12.20;11.20;;;;;;;21.46;45.13;95821.34;6107367;28;103191;-67
2022/10/10 03:31:58;;;;;;;13.00;11.80;;;;;;;21.47;44.67;95819.47;6118310;28;103010;-67
2022/10/10 03:35:02;;;;;;;12.60;11.30;;;;;;;21.48;44.81;95819.16;6111012;28;103720;-66
2022/10/10 03:38:06;;;;;;;14.73;13.13;;;;;;;21.36;44.10;95816.13;6091423;28;104562;-67
2022/10/10 03:41:09;;;;;;;14.70;13.30;;;;;;;21.24;44.54;95815.69;6084200;28;103826;-68
2022/10/10 03:44:12;;;;;;;16.33;14.83;;;;;;;21.27;44.42;95814.34;6095762;28;104557;-68
2022/10/10 03:47:15;;;;;;;15.83;14.43;;;;;;;21.30;44.24;95811.91;6090518;28;103796;-68
2022/10/10 03:50:19;;;;;;;14.23;13.03;;;;;;;21.30;44.07;95819.09;6088278;28;104519;-69
2022/10/10 03:53:23;;;;;;;14.50;13.30;;;;;;;21.31;44.62;95821.47;6094710;28;103079;-68
2022/10/10 03:56:26;;;;;;;14.90;13.53;;;;;;;21.26;44.77;95820.75;6093440;28;103261;-67
2022/10/10 03:59:29;;;;;;;14.60;13.30;;;;;;;21.30;45.23;95817.22;6098185;28;105981;-66
2022/10/10 04:02:32;;;;;;;14.50;13.40;;;;;;;21.33;45.68;95813.22;6086263;28;104388;-67
2022/10/10 04:05:38;;;;;;;13.80;12.80;;;;;;;21.40;44.79;95817.13;6091690;28;103235;-68
2022/10/10 04:08:41;;;;;;;14.73;13.50;;;;;;;21.39;45.66;95818.22;6099982;28;103651;-68
2022/10/10 04:11:44;;;;;;;15.20;13.63;;;;;;;21.39;45.15;95828.88;6101826;28;102888;-67
2022/10/10 04:14:47;;;;;;;17.03;15.73;;;;;;;21.42;45.88;95825.63;6083852;28;105348;-69
2022/10/10 04:17:50;;;;;;;17.53;16.10;;;;;;;21.42;45.25;95830.97;6097800;28;103394;-66
2022/10/10 04:20:54;;;;;;;28.80;26.27;;;;;;;21.40;44.87;95825.13;6095023;28;103111;-67
2022/10/10 04:23:57;;;;;;;23.37;21.27;;;;;;;21.09;44.58;95827.28;6094258;28;105780;-68
2022/10/10 04:27:00;;;;;;;19.67;17.97;;;;;;;20.86;45.16;95830.66;6091722;28;105168;-66
2022/10/10 04:30:04;;;;;;;20.10;18.07;;;;;;;20.90;45.18;95829.81;6097899;28;106033;-67
2022/10/10 04:33:07;;;;;;;19.10;17.20;;;;;;;20.99;44.45;95826.53;6096623;28;103123;-66
2022/10/10 04:36:12;;;;;;;20.17;17.73;;;;;;;21.03;44.12;95828.38;6087245;28;103843;-67
2022/10/10 04:39:15;;;;;;;19.40;17.50;;;;;;;21.04;44.33;95829.16;6090947;28;105295;-66
2022/10/10 04:42:18;;;;;;;18.57;16.87;;;;;;;21.05;44.13;95834.25;6099715;28;103375;-67
2022/10/10 04:45:21;;;;;;;17.13;15.53;;;;;;;21.02;43.98;95823.34;6095849;28;106116;-66
2022/10/10 04:48:24;;;;;;;19.43;17.47;;;;;;;21.00;44.31;95833.44;6084309;28;104416;-68
2022/10/10 04:51:29;;;;;;;28.80;26.20;;;;;;;20.99;44.14;95837.97;6091040;28;103203;-67
2022/10/10 04:54:32;;;;;;;29.47;26.87;;;;;;;21.01;44.60;95840.38;6094593;28;103569;-68
2022/10/10 04:57:35;;;;;;;26.63;23.67;;;;;;;20.98;44.53;95840.91;6095853;28;103242;-67
2022/10/10 05:00:38;;;;;;;22.30;20.30;;;;;;;20.82;44.51;95837.56;6084840;28;104366;-67
2022/10/10 05:03:41;;;;;;;24.50;18.47;;;;;;;20.87;44.57;95835.69;6095232;28;105280;-68
2022/10/10 05:06:46;;;;;;;19.43;17.63;;;;;;;20.93;44.26;95844.41;6096167;28;103501;-68
2022/10/10 05:09:49;;;;;;;19.17;17.47;;;;;;;20.92;44.50;95846.28;6087679;28;103213;-69
2022/10/10 05:12:52;;;;;;;19.50;17.70;;;;;;;20.90;44.67;95845.75;6095566;28;103366;-68
2022/10/10 05:15:56;;;;;;;23.53;21.20;;;;;;;20.96;44.64;95853.69;6100589;28;102995;-67
2022/10/10 05:19:00;;;;;;;27.47;24.53;;;;;;;20.98;44.13;95852.34;6095557;28;103517;-68
2022/10/10 05:22:04;;;;;;;23.53;21.53;;;;;;;20.96;43.90;95851.03;6087543;28;106980;-69
2022/10/10 05:25:08;;;;;;;23.40;21.23;;;;;;;;;;6091800;28;103099;-67
2022/10/10 05:28:11;;;;;;;24.07;21.60;;;;;;;20.96;44.23;95857.16;6096546;28;103241;-67
2022/10/10 05:31:14;;;;;;;22.23;20.03;;;;;;;20.96;44.75;95861.69;6097414;28;104489;-67
2022/10/10 05:34:17;;;;;;;23.10;21.20;;;;;;;;;;6085786;28;106539;-68
2022/10/10 05:37:21;;;;;;;22.53;20.47;;;;;;;20.92;44.88;95862.25;6096458;28;103081;-67
2022/10/10 05:40:24;;;;;;;22.17;20.10;;;;;;;20.94;45.32;95872.59;6094848;28;103028;-67
2022/10/10 05:43:28;;;;;;;22.27;20.23;;;;;;;20.92;45.21;95880.06;6090659;28;103242;-69
2022/10/10 05:46:31;;;;;;;23.20;20.77;;;;;;;20.90;45.03;95875.03;6094290;28;103764;-67
2022/10/10 05:49:34;;;;;;;23.10;20.93;;;;;;;20.91;45.56;95881.94;6100444;28;103291;-67
2022/10/10 05:52:38;;;;;;;23.50;21.13;;;;;;;20.91;45.30;95887.25;6095026;28;103374;-67
2022/10/10 05:55:43;;;;;;;23.43;20.80;;;;;;;20.92;45.27;95886.19;6085929;28;105195;-67
2022/10/10 05:58:46;;;;;;;30.63;25.43;;;;;;;20.96;45.41;95890.94;6090877;28;103257;-67
2022/10/10 06:01:49;;;;;;;36.20;32.93;;;;;;;20.97;45.41;95888.00;6095316;28;103035;-68
2022/10/10 06:04:52;;;;;;;37.30;33.40;;;;;;;21.00;44.91;95884.78;6095559;28;105074;-67
2022/10/10 06:07:57;;;;;;;28.53;25.90;;;;;;;21.03;45.02;95896.75;6082021;28;105488;-68
2022/10/10 06:11:14;;;;;;;21.93;20.00;;;;;;;21.08;45.26;95894.09;6093876;28;103472;-67
2022/10/10 06:14:17;;;;;;;21.87;19.60;;;;;;;21.15;45.07;95897.22;6094690;28;105319;-68
2022/10/10 06:17:20;;;;;;;21.60;19.50;;;;;;;21.16;45.31;95896.13;6091224;28;103752;-70
2022/10/10 06:20:24;;;;;;;21.40;19.50;;;;;;;21.16;46.03;95906.78;6088573;28;103079;-67
2022/10/10 06:23:28;;;;;;;22.37;20.23;;;;;;;21.25;46.56;95912.31;6094650;28;103287;-67
2022/10/10 06:26:31;;;;;;;22.20;20.23;;;;;;;21.32;46.76;95904.78;6098941;28;105365;-69
2022/10/10 06:29:34;;;;;;;23.10;21.10;;;;;;;21.35;47.10;95917.56;6090018;28;102940;-68
2022/10/10 06:32:37;;;;;;;22.60;20.40;;;;;;;21.37;47.30;95912.75;6095139;28;103142;-67
2022/10/10 06:35:42;;;;;;;21.40;19.37;;;;;;;21.41;46.53;95909.25;6094633;28;103269;-67
2022/10/10 06:38:46;;;;;;;23.87;20.93;;;;;;;21.46;46.47;95911.88;6095323;28;103249;-68
2022/10/10 06:41:49;;;;;;;21.03;19.03;;;;;;;21.54;45.99;95915.00;6079092;28;103010;-68
2022/10/10 06:44:53;;;;;;;21.90;19.83;;;;;;;21.50;46.96;95910.22;6094720;28;103028;-66
2022/10/10 06:47:56;;;;;;;21.57;19.60;;;;;;;21.51;46.98;95916.38;6094701;28;103116;-67
2022/10/10 06:51:00;;;;;;;22.70;20.57;;;;;;;21.54;46.77;95917.69;6094169;28;103245;-67
2022/10/10 06:54:05;;;;;;;24.67;22.33;;;;;;;21.53;46.70;95919.53;6084588;28;105328;-68
2022/10/10 06:57:08;;;;;;;24.73;22.33;;;;;;;21.56;46.67;95911.00;6094938;28;103627;-68
2022/10/10 07:00:12;;;;;;;24.20;21.90;;;;;;;21.59;46.39;95917.63;6097275;28;103464;-67
2022/10/10 07:03:15;;;;;;;24.53;21.90;;;;;;;21.57;46.35;95925.91;6093982;28;103733;-67
2022/10/10 07:06:18;;;;;;;23.40;21.33;;;;;;;21.63;46.55;95915.97;6090174;28;103353;-67
2022/10/10 07:09:23;;;;;;;24.00;21.70;;;;;;;21.69;46.14;95922.88;6094586;28;103422;-67
2022/10/10 07:12:26;;;;;;;21.30;19.40;;;;;;;21.69;46.48;95921.00;6093897;28;106043;-67
2022/10/10 07:15:33;;;;;;;23.53;21.23;;;;;;;21.71;46.07;95918.03;6083550;28;103602;-67
2022/10/10 07:18:36;;;;;;;23.27;20.97;;;;;;;21.73;46.17;95921.22;6095315;28;103541;-67
2022/10/10 07:21:40;;;;;;;22.03;20.00;;;;;;;21.72;46.69;95912.44;6093846;28;103104;-68
2022/10/10 07:24:44;;;;;;;24.00;21.43;;;;;;;21.72;46.24;95917.75;6093999;28;103330;-68
2022/10/10 07:27:48;;;;;;;23.47;21.33;;;;;;;21.72;46.36;95909.78;6087798;28;106093;-68
2022/10/10 07:30:51;;;;;;;27.77;25.20;;;;;;;21.74;46.25;95917.47;6098584;28;103122;-67
2022/10/10 07:33:54;;;;;;;28.63;25.93;;;;;;;21.75;46.05;95919.06;6098391;28;103117;-67
2022/10/10 07:36:57;;;;;;;27.17;24.87;;;;;;;21.74;46.63;95907.63;6093606;28;102918;-68
2022/10/10 07:40:02;;;;;;;24.50;22.27;;;;;;;21.73;46.27;95911.34;6096732;28;103132;-68
2022/10/10 07:43:05;;;;;;;24.50;22.43;;;;;;;21.77;46.04;95907.03;6097984;28;103173;-68
2022/10/10 07:46:14;;;;;;;23.30;21.00;;;;;;;21.77;46.63;95904.38;6098348;28;103199;-68
2022/10/10 07:49:17;;;;;;;22.80;20.37;;;;;;;21.77;46.67;95899.06;6089079;28;103941;-67
2022/10/10 07:52:20;;;;;;;22.80;20.50;;;;;;;21.78;46.73;95905.19;6098219;28;103553;-67
2022/10/10 07:55:25;;;;;;;22.30;20.20;;;;;;;21.78;46.85;95897.19;6098068;28;103092;-67
2022/10/10 07:58:28;;;;;;;20.77;18.87;;;;;;;21.78;46.35;95892.66;6097820;28;103212;-68
2022/10/10 08:01:31;;;;;;;21.30;19.10;;;;;;;21.78;46.29;95894.53;6084970;28;103636;-68
2022/10/10 08:04:34;;;;;;;18.27;16.57;;;;;;;21.77;46.51;95899.06;6096975;28;103466;-68
2022/10/10 08:07:37;;;;;;;19.70;17.97;;;;;;;21.75;46.48;95893.22;6097973;28;103458;-67
2022/10/10 08:10:44;;;;;;;19.03;17.20;;;;;;;21.76;46.70;95888.69;6097343;28;103170;-68
2022/10/10 08:13:47;;;;;;;18.60;16.83;;;;;;;21.76;46.25;95891.34;6088135;28;104387;-70
2022/10/10 08:16:51;;;;;;;18.37;16.67;;;;;;;21.74;46.35;95893.50;6102340;28;103568;-67
2022/10/10 08:19:54;;;;;;;18.47;16.67;;;;;;;21.77;46.23;95895.59;6097764;28;103239;-67
2022/10/10 08:22:57;;;;;;;16.27;14.80;;;;;;;21.75;45.97;95885.22;6088188;28;103399;-68
2022/10/10 08:26:03;;;;;;;16.70;15.20;;;;;;;21.76;45.93;95892.13;6096974;28;103043;-67
2022/10/10 08:29:06;;;;;;;16.10;14.50;;;;;;;21.76;46.10;95897.47;6097126;28;103053;-67
2022/10/10 08:32:10;;;;;;;15.63;14.23;;;;;;;21.77;46.29;95900.94;6097592;28;103221;-66
2022/10/10 08:35:13;;;;;;;15.43;14.00;;;;;;;21.78;46.23;95902.50;6086708;28;103420;-66
2022/10/10 08:38:16;;;;;;;14.47;13.17;;;;;;;21.78;46.25;95897.97;6096994;28;104686;-67
2022/10/10 08:41:28;;;;;;;11.27;10.37;;;;;;;21.38;45.58;95901.84;6098738;28;104101;-66
2022/10/10 08:44:39;;;;;;;10.77;9.83;;;;;;;21.00;45.51;95898.09;6093159;28;103372;-66
2022/10/10 08:47:48;;;;;;;10.33;9.33;;;;;;;20.72;45.70;95902.28;6085898;28;104987;-67
2022/10/10 08:50:57;;;;;;;10.87;9.93;;;;;;;21.07;45.53;95903.16;6096819;28;103061;-69
2022/10/10 08:54:04;;;;;;;10.03;9.23;;;;;;;21.04;45.30;95901.00;6097471;28;103869;-67
2022/10/10 08:57:22;;;;;;;9.50;8.70;;;;;;;21.16;45.16;95901.47;6086593;28;103067;-66
2022/10/10 09:00:32;;;;;;;10.60;9.60;;;;;;;21.33;45.16;95901.84;6097771;28;105001;-67
2022/10/10 09:03:39;;;;;;;9.07;8.30;;;;;;;21.43;44.60;95895.66;6097258;28;106633;-67
2022/10/10 09:07:07;;;;;;;9.10;8.33;;;;;;;21.48;44.48;95899.06;6096092;28;104286;-66
2022/10/10 09:10:20;;;;;;;9.33;8.57;;;;;;;21.53;44.86;95900.91;6085905;28;103250;-67
2022/10/10 09:13:33;;;;;;;8.97;8.27;;;;;;;21.56;44.50;95896.88;6096382;28;103215;-66
2022/10/10 09:16:42;;;;;;;8.13;7.50;;;;;;;21.59;44.12;95902.44;6094923;28;103131;-65
2022/10/10 09:19:59;;;;;;;8.97;7.90;;;;;;;21.60;44.44;95901.34;6087487;28;106388;-67
2022/10/10 09:23:08;;;;;;;9.50;7.90;;;;;;;21.60;44.17;95906.69;6100943;28;103120;-67
2022/10/10 09:26:15;;;;;;;8.40;7.60;;;;;;;21.61;44.11;95907.47;6100913;28;102917;-66
2022/10/10 09:29:28;;;;;;;9.13;8.27;;;;;;;21.61;43.85;95910.13;6101345;28;104034;-69
2022/10/10 09:32:38;;;;;;;8.63;7.70;;;;;;;21.61;44.16;95912.81;6090965;28;102864;-69
2022/10/10 09:35:42;;;;;;;10.53;8.10;;;;;;;21.63;44.13;95911.44;6098252;28;103024;-69
2022/10/10 09:38:50;;;;;;;8.30;7.60;;;;;;;21.62;43.88;95912.53;6100642;28;103192;-67
2022/10/10 09:41:58;;;;;;;7.83;7.33;;;;;;;21.64;43.69;95915.69;6091451;28;103242;-67
2022/10/10 09:45:03;;;;;;;7.30;6.70;;;;;;;21.63;43.65;95905.31;6091357;28;103093;-67
2022/10/10 09:48:09;;;;;;;8.20;7.40;;;;;;;21.61;43.56;95913.59;6095432;28;103384;-67
2022/10/10 09:51:16;;;;;;;8.03;7.33;;;;;;;21.62;43.65;95901.88;6096618;28;102774;-67
2022/10/10 09:54:20;;;;;;;10.10;7.80;;;;;;;21.62;43.60;95909.84;6083618;28;105158;-67
2022/10/10 09:57:26;;;;;;;8.30;7.50;;;;;;;21.61;43.73;95910.13;6095647;28;103122;-67
2022/10/10 10:00:36;;;;;;;8.10;7.30;;;;;;;21.60;43.45;95909.34;6096182;28;103220;-68
2022/10/10 10:03:39;;;;;;;8.03;7.37;;;;;;;21.62;43.62;95903.75;6096737;28;103533;-68
2022/10/10 10:06:44;;;;;;;8.70;8.00;;;;;;;21.59;43.25;95896.31;6083832;28;103848;-67
2022/10/10 10:09:49;;;;;;;7.97;7.27;;;;;;;21.57;43.14;95879.81;6096168;28;103188;-67
2022/10/10 10:12:52;;;;;;;8.17;7.47;;;;;;;21.61;43.08;95896.81;6096024;28;103109;-68
2022/10/10 10:16:05;;;;;;;8.73;7.83;;;;;;;21.57;42.89;95895.81;6089786;28;103093;-68
2022/10/10 10:19:30;;;;;;;8.77;8.00;;;;;;;21.57;43.20;95887.81;6091118;28;106816;-66
2022/10/10 10:22:37;;;;;;;8.27;7.57;;;;;;;21.53;43.10;95887.59;6095460;28;103569;-66
2022/10/10 10:25:40;;;;;;;7.37;6.87;;;;;;;21.57;43.29;95885.16;6095889;28;102883;-68
2022/10/10 10:28:44;;;;;;;8.03;7.43;;;;;;;21.56;43.25;95886.22;6084402;28;104343;-66
2022/10/10 10:31:56;;;;;;;9.80;7.90;;;;;;;21.54;43.10;95880.41;6095204;28;106353;-68
2022/10/10 10:35:20;;;;;;;8.73;6.40;;;;;;;21.54;43.03;95872.41;6096137;28;105421;-66
2022/10/10 10:38:34;;;;;;;7.37;6.87;;;;;;;21.51;43.00;95882.53;6094260;28;102846;-69
2022/10/10 10:41:44;;;;;;;7.60;6.80;;;;;;;21.52;42.91;95876.16;6088810;28;103748;-66
2022/10/10 10:44:55;;;;;;;7.73;7.13;;;;;;;21.52;42.81;95876.16;6093934;28;103306;-68
2022/10/10 10:48:12;;;;;;;8.00;7.30;;;;;;;21.49;42.75;95870.56;6094769;28;103158;-67
2022/10/10 10:51:39;;;;;;;7.40;6.70;;;;;;;21.49;42.57;95879.34;6085281;28;105596;-68
2022/10/10 10:54:55;;;;;;;7.47;6.87;;;;;;;21.48;42.77;95877.75;6094676;28;103412;-67
2022/10/10 10:58:18;;;;;;;7.63;7.13;;;;;;;21.48;42.57;95877.75;6094954;28;103573;-67
2022/10/10 11:01:48;;;;;;;7.30;6.70;;;;;;;21.48;43.03;95883.09;6090340;28;103092;-68
2022/10/10 11:08:53;;;;;;;8.13;7.33;;;;;;;21.46;43.12;95861.28;6192416;28;102748;-67
2022/10/10 11:12:16;;;;;;;7.50;6.80;;;;;;;21.46;42.82;95853.28;6191051;28;103497;-68
2022/10/10 11:15:24;;;;;;;7.83;7.13;;;;;;;21.46;43.11;95842.63;6180494;28;104591;-68
2022/10/10 11:18:45;;;;;;;8.30;7.60;;;;;;;21.46;42.57;95841.84;6195145;28;103718;-67
2022/10/10 11:21:54;;;;;;;7.90;7.30;;;;;;;21.45;42.99;95841.03;6195467;28;103270;-66
2022/10/10 11:25:04;;;;;;;8.20;7.50;;;;;;;21.47;43.01;95840.75;6184630;28;103225;-67
2022/10/10 11:28:13;;;;;;;7.80;7.10;;;;;;;21.43;42.96;95845.06;6194590;28;102969;-67
2022/10/10 11:31:23;;;;;;;7.60;6.90;;;;;;;21.44;42.82;95836.00;6194864;28;103327;-68
2022/10/10 11:34:31;;;;;;;9.43;6.83;;;;;;;21.45;42.93;95832.25;6190990;28;103376;-67
2022/10/10 11:37:40;;;;;;;7.47;6.77;;;;;;;21.42;42.71;95835.50;6182568;28;103473;-68
2022/10/10 11:40:51;;;;;;;8.00;7.40;;;;;;;21.44;42.95;95834.13;6192853;28;103755;-67
2022/10/10 11:43:57;;;;;;;7.93;7.20;;;;;;;21.49;43.13;95825.28;6190264;28;103062;-67
2022/10/10 11:47:10;;;;;;;7.87;7.20;;;;;;;21.49;43.44;95826.09;6184651;28;105672;-67
2022/10/10 11:50:19;;;;;;;7.17;6.57;;;;;;;21.48;43.00;95819.16;6189172;28;103201;-67
2022/10/10 11:53:30;;;;;;;7.33;6.73;;;;;;;21.56;43.20;95820.44;6193058;28;102979;-68
2022/10/10 11:56:40;;;;;;;7.07;6.47;;;;;;;21.50;42.63;95811.69;6195195;28;106066;-68
2022/10/10 11:59:47;;;;;;;7.90;7.30;;;;;;;21.48;42.92;95802.41;6184719;28;104023;-66
2022/10/10 12:02:51;;;;;;;7.60;6.83;;;;;;;21.48;42.69;95795.22;6194520;28;103223;-67
2022/10/10 12:06:00;;;;;;;8.60;7.20;;;;;;;21.45;42.71;95793.13;6165224;28;103995;-69
2022/10/10 12:09:09;;;;;;;7.70;7.10;;;;;;;21.43;43.14;95792.59;6165072;28;102982;-66
2022/10/10 12:12:19;;;;;;;7.60;6.70;;;;;;;21.43;43.12;95792.59;6156469;28;103601;-68
2022/10/10 12:15:28;;;;;;;7.80;7.20;;;;;;;21.40;43.20;95795.84;6164783;28;103136;-68
2022/10/10 12:18:39;;;;;;;8.30;7.60;;;;;;;21.40;43.17;95795.84;6153049;28;105187;-67
2022/10/10 12:22:04;;;;;;;7.80;7.20;;;;;;;21.39;42.86;95794.25;6138328;28;103426;-66
2022/10/10 12:25:22;;;;;;;7.87;7.27;;;;;;;21.37;42.63;95790.28;6148526;28;106785;-66
2022/10/10 12:28:33;;;;;;;8.10;7.50;;;;;;;21.42;42.87;95779.59;6144044;28;103191;-66
2022/10/10 12:31:37;;;;;;;7.70;7.00;;;;;;;21.42;42.34;95783.03;6148545;28;103444;-66
2022/10/10 12:34:42;;;;;;;7.53;7.03;;;;;;;21.40;42.42;95774.53;6138638;28;103412;-66
2022/10/10 12:38:14;;;;;;;7.50;6.80;;;;;;;21.43;42.51;95771.31;6145194;28;103120;-68
2022/10/10 12:41:18;;;;;;;7.37;6.67;;;;;;;21.45;42.72;95766.50;6146517;28;104271;-67
2022/10/10 12:44:24;;;;;;;7.80;7.07;;;;;;;21.48;42.46;95775.78;6138943;28;106142;-67
2022/10/10 12:47:34;;;;;;;7.40;6.80;;;;;;;21.49;42.26;95772.03;6147214;28;103224;-66
2022/10/10 12:50:59;;;;;;;8.20;7.13;;;;;;;21.48;42.29;95760.59;6143842;28;103852;-67
2022/10/10 12:54:05;;;;;;;7.83;7.23;;;;;;;21.48;42.52;95757.94;6146540;28;103031;-68
2022/10/10 12:57:17;;;;;;;7.70;7.03;;;;;;;21.48;42.24;95757.13;6136801;28;103180;-67
2022/10/10 13:00:24;;;;;;;7.80;7.10;;;;;;;21.45;42.40;95755.84;6147164;28;103143;-68
2022/10/10 13:03:32;;;;;;;7.70;7.00;;;;;;;21.48;42.56;95755.25;6146810;28;102962;-67
2022/10/10 13:06:38;;;;;;;7.57;6.93;;;;;;;21.47;42.12;95756.34;6142284;28;103513;-68
2022/10/10 13:09:45;;;;;;;7.63;7.00;;;;;;;21.47;42.13;95753.69;6143523;28;104672;-68
2022/10/10 13:13:00;;;;;;;7.63;7.03;;;;;;;21.46;41.66;95768.06;6144609;28;103075;-67
2022/10/10 13:16:09;;;;;;;7.50;6.90;;;;;;;21.45;41.99;95761.16;6147566;28;104758;-67
2022/10/10 13:19:18;;;;;;;8.27;7.57;;;;;;;21.45;42.26;95758.50;6136512;28;104381;-68
2022/10/10 13:22:22;;;;;;;8.70;7.60;;;;;;;21.46;42.04;95754.75;6142933;28;103297;-68
2022/10/10 13:25:25;;;;;;;9.03;8.23;;;;;;;21.45;42.18;95749.72;6149221;28;106145;-69
2022/10/10 13:28:29;;;;;;;8.27;7.63;;;;;;;21.47;42.26;95752.88;6146837;28;103213;-68
2022/10/10 13:31:33;;;;;;;7.60;7.00;;;;;;;21.47;42.48;95756.34;6131947;28;103965;-68
2022/10/10 13:34:40;;;;;;;8.10;7.40;;;;;;;21.47;42.51;95748.34;6150472;28;103617;-66
2022/10/10 13:37:45;;;;;;;8.07;7.30;;;;;;;21.46;42.29;95762.75;6152099;28;102854;-65
2022/10/10 13:40:48;;;;;;;8.07;7.10;;;;;;;21.45;42.52;95753.19;6145485;28;106039;-68
2022/10/10 13:43:52;;;;;;;9.33;8.63;;;;;;;21.44;42.30;95759.59;6141795;28;106856;-66
2022/10/10 13:46:57;;;;;;;7.37;6.77;;;;;;;21.46;42.25;95757.41;6147199;28;105756;-65
2022/10/10 13:50:00;;;;;;;7.60;7.00;;;;;;;21.45;41.96;95763.03;6147400;28;102887;-65
2022/10/10 13:53:31;;;;;;;8.57;7.77;;;;;;;21.45;42.22;95761.16;6133375;28;104905;-67
2022/10/10 13:56:39;;;;;;;7.40;6.90;;;;;;;21.45;42.52;95753.19;6147731;28;106641;-66
2022/10/10 13:59:45;;;;;;;8.17;7.47;;;;;;;21.45;42.36;95755.03;6147180;28;103305;-66
2022/10/10 14:02:51;;;;;;;7.60;6.90;;;;;;;21.44;42.46;95756.91;6146554;28;105278;-67
2022/10/10 14:05:54;;;;;;;10.87;6.77;;;;;;;21.42;42.46;95761.72;6135521;28;103745;-66
2022/10/10 14:09:07;;;;;;;8.00;7.40;;;;;;;21.43;42.06;95759.88;6145949;28;103112;-67
2022/10/10 14:12:17;;;;;;;7.43;6.83;;;;;;;21.44;42.21;95756.13;6148734;28;106465;-67
2022/10/10 14:15:43;;;;;;;8.60;8.00;;;;;;;21.44;41.98;95756.91;6132213;28;103777;-66
2022/10/10 14:18:47;;;;;;;9.13;8.33;;;;;;;21.44;42.57;95758.78;6151044;28;105220;-67
2022/10/10 14:21:50;;;;;;;8.33;7.53;;;;;;;21.41;42.36;95749.50;6145928;28;103035;-66
2022/10/10 14:24:53;;;;;;;8.90;8.00;;;;;;;21.43;42.34;95751.88;6142427;28;103196;-66